createdAt,value
2023-01-21T00:01:22.583Z,99.90
2023-01-21T00:03:49.743Z,99.90
2023-01-21T00:06:17.270Z,99.90
2023-01-21T00:08:44.362Z,99.90
2023-01-21T00:11:16.266Z,99.90
2023-01-21T00:13:44.106Z,99.90
2023-01-21T00:16:12.052Z,99.90
2023-01-21T00:18:39.199Z,99.90
2023-01-21T00:21:06.303Z,99.90
2023-01-21T00:23:42.135Z,99.90
2023-01-21T00:26:12.134Z,99.90
2023-01-21T00:28:41.767Z,99.90
2023-01-21T00:31:09.315Z,99.90
2023-01-21T00:33:36.632Z,99.70
2023-01-21T00:36:14.045Z,99.90
2023-01-21T00:38:44.478Z,99.90
2023-01-21T00:41:13.408Z,99.90
2023-01-21T00:43:42.022Z,99.90
2023-01-21T00:46:10.286Z,99.90
2023-01-21T00:48:37.772Z,99.90
2023-01-21T00:51:04.967Z,99.90
2023-01-21T00:53:34.971Z,99.90
2023-01-21T00:56:04.175Z,99.90
2023-01-21T00:58:31.453Z,99.90
2023-01-21T01:01:08.943Z,99.90
2023-01-21T01:03:37.531Z,99.90
2023-01-21T01:06:08.911Z,99.90
2023-01-21T01:08:36.243Z,99.90
2023-01-21T01:11:03.874Z,99.90
2023-01-21T01:13:31.544Z,99.90
2023-01-21T01:15:58.920Z,99.90
2023-01-21T01:18:30.458Z,99.90
2023-01-21T01:20:57.483Z,99.90
2023-01-21T01:23:24.818Z,99.90
2023-01-21T01:26:00.718Z,99.90
2023-01-21T01:28:28.766Z,99.90
2023-01-21T01:30:56.081Z,99.90
2023-01-21T01:33:23.732Z,99.90
2023-01-21T01:35:50.955Z,99.90
2023-01-21T01:38:22.351Z,99.90
2023-01-21T01:40:50.945Z,99.90
2023-01-21T01:43:24.418Z,99.90
2023-01-21T01:45:52.308Z,99.90
2023-01-21T01:48:31.320Z,99.90
2023-01-21T01:51:01.764Z,99.90
2023-01-21T01:53:31.497Z,99.90
2023-01-21T01:55:59.900Z,99.90
2023-01-21T01:58:29.038Z,99.90
2023-01-21T02:00:56.249Z,99.90
2023-01-21T02:03:44.918Z,99.90
2023-01-21T02:06:13.759Z,99.90
2023-01-21T02:08:41.368Z,99.90
2023-01-21T02:11:16.781Z,99.90
2023-01-21T02:13:48.440Z,99.90
2023-01-21T02:16:49.279Z,99.90
2023-01-21T02:19:33.994Z,99.90
2023-01-21T02:22:33.873Z,99.90
2023-01-21T02:25:06.539Z,99.90
2023-01-21T02:27:36.500Z,99.90
2023-01-21T02:30:27.803Z,99.90
2023-01-21T02:33:07.112Z,99.90
2023-01-21T02:35:45.605Z,99.90
2023-01-21T02:38:36.896Z,99.90
2023-01-21T02:41:18.231Z,99.90
2023-01-21T02:43:47.986Z,99.90
2023-01-21T02:46:39.735Z,99.90
2023-01-21T02:49:25.956Z,99.90
2023-01-21T02:51:53.030Z,99.90
2023-01-21T02:54:49.720Z,99.90
2023-01-21T02:57:24.676Z,99.90
2023-01-21T02:59:55.227Z,99.90
2023-01-21T03:02:58.228Z,99.90
2023-01-21T03:05:33.235Z,99.90
2023-01-21T03:08:19.041Z,99.90
2023-01-21T03:11:09.829Z,99.90
2023-01-21T03:14:07.374Z,99.90
2023-01-21T03:16:59.870Z,99.90
2023-01-21T03:19:48.078Z,99.90
2023-01-21T03:22:21.977Z,99.90
2023-01-21T03:24:51.950Z,99.90
2023-01-21T03:27:23.896Z,99.90
2023-01-21T03:29:58.204Z,99.90
2023-01-21T03:32:30.133Z,99.90
2023-01-21T03:34:58.604Z,99.90
2023-01-21T03:37:30.600Z,99.90
2023-01-21T03:40:16.313Z,99.90
2023-01-21T03:42:44.941Z,99.90
2023-01-21T03:45:13.325Z,99.90
2023-01-21T03:47:46.745Z,99.90
2023-01-21T03:50:25.487Z,99.90
2023-01-21T03:52:52.936Z,99.90
2023-01-21T03:55:20.170Z,99.90
2023-01-21T03:57:47.316Z,99.90
2023-01-21T04:00:15.973Z,99.90
2023-01-21T04:02:43.406Z,99.90
2023-01-21T04:05:10.449Z,99.90
2023-01-21T04:07:37.471Z,99.90
2023-01-21T04:10:04.942Z,99.90
2023-01-21T04:12:31.950Z,99.90
2023-01-21T04:14:58.975Z,99.90
2023-01-21T04:17:26.015Z,99.90
2023-01-21T04:19:53.107Z,99.90
2023-01-21T04:22:20.810Z,99.90
2023-01-21T04:24:47.768Z,99.90
2023-01-21T04:27:14.789Z,99.90
2023-01-21T04:29:41.895Z,99.90
2023-01-21T04:32:08.875Z,99.90
2023-01-21T04:34:35.907Z,99.90
2023-01-21T04:37:02.946Z,99.90
2023-01-21T04:39:29.973Z,99.90
2023-01-21T04:41:57.061Z,99.90
2023-01-21T04:44:25.313Z,99.90
2023-01-21T04:46:52.376Z,99.90
2023-01-21T04:49:19.439Z,99.90
2023-01-21T04:51:46.491Z,99.90
2023-01-21T04:54:13.543Z,99.90
2023-01-21T04:56:40.510Z,99.90
2023-01-21T04:59:07.810Z,99.90
2023-01-21T05:01:34.803Z,99.90
2023-01-21T05:04:01.808Z,99.90
2023-01-21T05:06:28.894Z,99.90
2023-01-21T05:08:56.091Z,99.90
2023-01-21T05:11:23.960Z,99.90
2023-01-21T05:13:53.598Z,99.90
2023-01-21T05:16:20.692Z,99.90
2023-01-21T05:18:48.399Z,99.90
2023-01-21T05:21:15.435Z,99.90
2023-01-21T05:23:45.229Z,99.90
2023-01-21T05:26:12.316Z,99.90
2023-01-21T05:28:39.438Z,99.90
2023-01-21T05:31:06.554Z,99.90
2023-01-21T05:33:35.360Z,99.90
2023-01-21T05:36:03.611Z,99.90
2023-01-21T05:38:30.823Z,99.90
2023-01-21T05:41:01.917Z,99.90
2023-01-21T05:43:29.400Z,99.90
2023-01-21T05:45:56.979Z,99.90
2023-01-21T05:48:24.308Z,99.90
2023-01-21T05:50:51.517Z,99.90
2023-01-21T05:53:18.873Z,99.90
2023-01-21T05:55:46.022Z,99.90
2023-01-21T05:58:13.122Z,99.90
2023-01-21T06:00:41.980Z,99.90
2023-01-21T06:03:10.167Z,99.90
2023-01-21T06:05:37.214Z,99.90
2023-01-21T06:08:04.616Z,99.90
2023-01-21T06:10:31.702Z,99.90
2023-01-21T06:12:58.718Z,99.90
2023-01-21T06:15:25.997Z,99.90
2023-01-21T06:18:01.621Z,99.90
2023-01-21T06:20:31.645Z,99.90
2023-01-21T06:23:01.000Z,99.90
2023-01-21T06:25:28.520Z,99.90
2023-01-21T06:27:56.153Z,99.90
2023-01-21T06:30:24.650Z,99.90
2023-01-21T06:32:51.785Z,99.90
2023-01-21T06:35:19.364Z,99.90
2023-01-21T06:37:47.131Z,99.90
2023-01-21T06:40:15.182Z,99.90
2023-01-21T06:42:45.246Z,99.90
2023-01-21T06:45:12.643Z,99.90
2023-01-21T06:47:44.431Z,99.90
2023-01-21T06:50:13.705Z,99.90
2023-01-21T06:52:43.829Z,99.90
2023-01-21T06:55:11.528Z,99.90
2023-01-21T06:57:39.659Z,99.90
2023-01-21T07:00:09.405Z,99.90
2023-01-21T07:02:36.738Z,99.90
2023-01-21T07:05:05.412Z,99.90
2023-01-21T07:07:32.626Z,99.90
2023-01-21T07:09:59.689Z,99.90
2023-01-21T07:12:27.026Z,99.90
2023-01-21T07:14:54.133Z,99.90
2023-01-21T07:17:21.810Z,99.90
2023-01-21T07:19:50.935Z,99.90
2023-01-21T07:22:19.092Z,99.90
2023-01-21T07:24:46.162Z,99.90
2023-01-21T07:27:13.785Z,99.90
2023-01-21T07:29:40.858Z,99.90
2023-01-21T07:32:07.935Z,99.90
2023-01-21T07:34:35.112Z,99.90
2023-01-21T07:37:05.061Z,99.90
2023-01-21T07:39:32.571Z,99.90
2023-01-21T07:41:59.596Z,99.90
2023-01-21T07:44:26.608Z,99.90
2023-01-21T07:46:53.918Z,99.90
2023-01-21T07:49:21.024Z,99.90
2023-01-21T07:51:48.932Z,99.90
2023-01-21T07:54:16.306Z,99.90
2023-01-21T07:56:43.425Z,99.90
2023-01-21T07:59:13.999Z,99.90
2023-01-21T08:01:41.413Z,99.90
2023-01-21T08:04:09.926Z,99.90
2023-01-21T08:06:38.056Z,99.90
2023-01-21T08:09:05.194Z,99.90
2023-01-21T08:11:32.195Z,99.90
2023-01-21T08:14:05.349Z,99.90
2023-01-21T08:16:32.381Z,99.90
2023-01-21T08:18:59.436Z,99.90
2023-01-21T08:21:26.611Z,99.90
2023-01-21T08:23:53.614Z,99.90
2023-01-21T08:26:20.721Z,99.90
2023-01-21T08:28:48.066Z,99.90
2023-01-21T08:31:15.504Z,99.90
2023-01-21T08:33:42.683Z,99.90
2023-01-21T08:36:10.027Z,99.90
2023-01-21T08:38:37.469Z,99.90
2023-01-21T08:41:04.786Z,99.90
2023-01-21T08:43:31.931Z,99.90
2023-01-21T08:46:01.651Z,99.90
2023-01-21T08:48:30.032Z,99.90
2023-01-21T08:51:01.775Z,99.90
2023-01-21T08:53:29.108Z,99.90
2023-01-21T08:56:01.001Z,99.90
2023-01-21T08:58:29.319Z,99.90
2023-01-21T09:00:57.297Z,99.90
2023-01-21T09:03:24.514Z,99.90
2023-01-21T09:05:54.075Z,99.90
2023-01-21T09:08:21.205Z,99.90
2023-01-21T09:11:02.828Z,99.90
2023-01-21T09:13:40.710Z,99.90
2023-01-21T09:16:10.350Z,99.90
2023-01-21T09:18:37.864Z,99.90
2023-01-21T09:21:06.053Z,99.90
2023-01-21T09:23:34.857Z,99.90
2023-01-21T09:26:04.192Z,99.90
2023-01-21T09:28:39.586Z,99.90
2023-01-21T09:31:10.905Z,99.90
2023-01-21T09:33:39.553Z,99.90
2023-01-21T09:36:08.646Z,99.90
2023-01-21T09:38:35.779Z,99.90
2023-01-21T09:41:28.181Z,99.90
2023-01-21T09:44:16.454Z,99.90
2023-01-21T09:46:52.999Z,99.90
2023-01-21T09:49:28.115Z,99.90
2023-01-21T09:52:10.229Z,99.90
2023-01-21T09:54:39.686Z,99.90
2023-01-21T09:57:34.486Z,99.90
2023-01-21T10:00:19.567Z,99.90
2023-01-21T10:02:49.343Z,99.90
2023-01-21T10:05:25.377Z,99.90
2023-01-21T10:08:07.473Z,99.90
2023-01-21T10:10:44.429Z,99.90
2023-01-21T10:13:46.111Z,99.90
2023-01-21T10:16:37.185Z,99.90
2023-01-21T10:19:05.829Z,99.90
2023-01-21T10:21:38.103Z,99.90
2023-01-21T10:24:13.021Z,99.90
2023-01-21T10:26:43.061Z,99.90
2023-01-21T10:29:22.500Z,99.90
2023-01-21T10:32:16.579Z,99.90
2023-01-21T10:34:52.514Z,99.90
2023-01-21T10:37:37.062Z,99.90
2023-01-21T10:40:43.820Z,99.90
2023-01-21T10:43:27.082Z,99.90
2023-01-21T10:46:02.833Z,99.90
2023-01-21T10:48:43.661Z,99.90
2023-01-21T10:51:39.725Z,99.90
2023-01-21T10:54:30.971Z,99.90
2023-01-21T10:57:26.503Z,99.90
2023-01-21T10:59:59.533Z,99.90
2023-01-21T11:02:33.420Z,99.90
2023-01-21T11:05:05.607Z,99.90
2023-01-21T11:07:42.561Z,99.90
2023-01-21T11:10:13.421Z,99.90
2023-01-21T11:12:40.421Z,99.90
2023-01-21T11:15:16.475Z,99.90
2023-01-21T11:17:47.505Z,99.90
2023-01-21T11:20:39.752Z,99.90
2023-01-21T11:23:24.456Z,99.90
2023-01-21T11:25:51.558Z,99.90
2023-01-21T11:28:25.001Z,99.90
2023-01-21T11:31:04.683Z,99.90
2023-01-21T11:33:32.307Z,99.90
2023-01-21T11:36:17.588Z,99.90
2023-01-21T11:38:47.455Z,99.90
2023-01-21T11:41:22.834Z,99.90
2023-01-21T11:44:12.975Z,99.90
2023-01-21T11:46:41.371Z,99.90
2023-01-21T11:49:08.420Z,99.90
2023-01-21T11:51:37.121Z,99.90
2023-01-21T11:54:13.337Z,99.90
2023-01-21T11:56:43.371Z,99.90
2023-01-21T11:59:25.448Z,99.90
2023-01-21T12:02:27.070Z,99.90
2023-01-21T12:04:56.936Z,99.90
2023-01-21T12:07:33.940Z,99.90
2023-01-21T12:10:03.808Z,99.90
2023-01-21T12:13:17.222Z,99.90
2023-01-21T12:16:14.683Z,99.90
2023-01-21T12:18:52.002Z,99.90
2023-01-21T12:21:26.171Z,99.90
2023-01-21T12:23:57.805Z,99.90
2023-01-21T12:27:04.281Z,99.90
2023-01-21T12:29:58.592Z,99.90
2023-01-21T12:32:34.480Z,99.90
2023-01-21T12:35:04.323Z,99.90
2023-01-21T12:37:42.966Z,99.90
2023-01-21T12:40:41.258Z,99.90
2023-01-21T12:43:21.029Z,99.90
2023-01-21T12:46:14.586Z,99.90
2023-01-21T12:48:45.111Z,99.90
2023-01-21T12:51:20.451Z,99.90
2023-01-21T12:53:56.693Z,99.90
2023-01-21T12:56:37.797Z,99.90
2023-01-21T12:59:07.631Z,99.90
2023-01-21T13:02:05.589Z,99.90
2023-01-21T13:04:53.914Z,99.90
2023-01-21T13:07:26.847Z,99.90
2023-01-21T13:10:13.999Z,99.90
2023-01-21T13:12:44.587Z,99.90
2023-01-21T13:15:27.621Z,99.90
2023-01-21T13:18:01.547Z,99.90
2023-01-21T13:20:31.616Z,99.90
2023-01-21T13:23:15.464Z,99.90
2023-01-21T13:25:56.719Z,99.90
2023-01-21T13:28:55.130Z,99.90
2023-01-21T13:31:28.075Z,99.90
2023-01-21T13:34:22.227Z,99.90
2023-01-21T13:37:07.085Z,99.90
2023-01-21T13:39:45.418Z,99.90
2023-01-21T13:42:34.120Z,99.90
2023-01-21T13:45:07.619Z,99.90
2023-01-21T13:47:57.757Z,99.90
2023-01-21T13:50:30.634Z,99.90
2023-01-21T13:53:15.566Z,99.90
2023-01-21T13:56:10.528Z,99.90
2023-01-21T13:58:50.304Z,99.90
2023-01-21T14:01:46.827Z,99.90
2023-01-21T14:04:37.318Z,99.90
2023-01-21T14:07:07.246Z,99.90
2023-01-21T14:09:47.268Z,99.90
2023-01-21T14:12:55.645Z,99.90
2023-01-21T14:15:51.992Z,99.90
2023-01-21T14:18:41.964Z,99.90
2023-01-21T14:21:11.788Z,99.90
2023-01-21T14:24:06.396Z,99.90
2023-01-21T14:26:51.528Z,99.90
2023-01-21T14:29:54.122Z,99.90
2023-01-21T14:32:23.891Z,99.90
2023-01-21T14:35:21.422Z,99.90
2023-01-21T14:38:09.174Z,99.90
2023-01-21T14:40:48.920Z,99.90
2023-01-21T14:43:40.657Z,99.90
2023-01-21T14:46:24.646Z,99.90
2023-01-21T14:49:06.322Z,99.90
2023-01-21T14:51:37.220Z,99.90
2023-01-21T14:54:15.065Z,99.90
2023-01-21T14:56:55.959Z,99.90
2023-01-21T14:59:34.758Z,99.90
2023-01-21T15:02:06.259Z,99.90
2023-01-21T15:04:41.088Z,99.90
2023-01-21T15:07:19.300Z,99.90
2023-01-21T15:09:55.723Z,99.90
2023-01-21T15:12:29.215Z,99.90
2023-01-21T15:15:01.951Z,99.90
2023-01-21T15:18:21.574Z,99.90
2023-01-21T15:20:53.099Z,99.60
2023-01-21T15:23:32.364Z,99.90
2023-01-21T15:26:11.662Z,99.90
2023-01-21T15:28:49.519Z,99.90
2023-01-21T15:31:23.494Z,99.90
2023-01-21T15:33:55.496Z,99.90
2023-01-21T15:36:27.843Z,99.90
2023-01-21T15:39:11.002Z,99.90
2023-01-21T15:41:44.149Z,99.90
2023-01-21T15:44:30.401Z,99.90
2023-01-21T15:47:22.459Z,99.90
2023-01-21T15:50:24.463Z,99.90
2023-01-21T15:53:23.174Z,99.90
2023-01-21T15:56:08.052Z,99.90
2023-01-21T15:58:51.224Z,99.90
2023-01-21T16:01:38.878Z,99.90
2023-01-21T16:04:14.882Z,99.90
2023-01-21T16:07:05.136Z,99.90
2023-01-21T16:09:36.705Z,99.90
2023-01-21T16:12:39.500Z,99.90
2023-01-21T16:15:35.717Z,99.90
2023-01-21T16:18:10.789Z,99.90
2023-01-21T16:20:43.749Z,99.90
2023-01-21T16:23:11.022Z,99.90
2023-01-21T16:25:46.692Z,99.90
2023-01-21T16:28:13.834Z,99.90
2023-01-21T16:30:40.995Z,99.90
2023-01-21T16:33:10.173Z,99.90
2023-01-21T16:35:43.403Z,99.90
2023-01-21T16:38:15.739Z,99.90
2023-01-21T16:40:42.870Z,99.90
2023-01-21T16:43:20.424Z,99.90
2023-01-21T16:46:11.880Z,99.90
2023-01-21T16:48:39.784Z,99.90
2023-01-21T16:51:13.410Z,99.90
2023-01-21T16:53:40.483Z,99.90
2023-01-21T16:56:28.064Z,99.90
2023-01-21T16:58:56.248Z,99.90
2023-01-21T17:01:28.425Z,99.90
2023-01-21T17:03:55.832Z,99.90
2023-01-21T17:06:29.316Z,99.90
2023-01-21T17:09:02.827Z,99.90
2023-01-21T17:11:31.483Z,99.90
2023-01-21T17:14:01.570Z,99.90
2023-01-21T17:16:34.437Z,99.90
2023-01-21T17:19:06.021Z,99.90
2023-01-21T17:21:36.405Z,99.90
2023-01-21T17:24:08.060Z,99.90
2023-01-21T17:26:39.775Z,99.90
2023-01-21T17:29:33.745Z,99.90
2023-01-21T17:32:26.026Z,99.90
2023-01-21T17:35:23.819Z,99.90
2023-01-21T17:37:58.800Z,99.90
2023-01-21T17:40:31.548Z,99.90
2023-01-21T17:43:00.987Z,99.90
2023-01-21T17:45:29.941Z,99.90
2023-01-21T17:48:14.875Z,99.90
2023-01-21T17:50:46.484Z,99.90
2023-01-21T17:53:27.047Z,99.90
2023-01-21T17:56:00.339Z,99.90
2023-01-21T17:58:45.973Z,99.90
2023-01-21T18:01:13.861Z,99.90
2023-01-21T18:03:41.361Z,99.90
2023-01-21T18:06:24.068Z,99.90
2023-01-21T18:08:51.241Z,99.90
2023-01-21T18:11:18.793Z,99.90
2023-01-21T18:13:45.965Z,99.90
2023-01-21T18:16:13.625Z,99.90
2023-01-21T18:18:40.983Z,99.90
2023-01-21T18:21:17.180Z,99.90
2023-01-21T18:23:44.207Z,99.90
2023-01-21T18:26:21.547Z,99.90
2023-01-21T18:28:48.687Z,99.90
2023-01-21T18:31:15.944Z,99.80
2023-01-21T18:33:43.099Z,99.90
2023-01-21T18:36:11.817Z,99.90
2023-01-21T18:38:38.878Z,99.80
2023-01-21T18:41:06.218Z,99.90
2023-01-21T18:43:33.273Z,99.70
2023-01-21T18:46:00.530Z,99.80
2023-01-21T18:48:30.093Z,99.80
2023-01-21T18:50:57.165Z,99.80
2023-01-21T18:53:25.627Z,99.80
2023-01-21T18:55:56.441Z,99.80
2023-01-21T18:58:23.497Z,99.90
2023-01-21T19:00:50.774Z,99.80
2023-01-21T19:03:18.445Z,99.80
2023-01-21T19:05:49.988Z,99.80
2023-01-21T19:08:19.698Z,99.80
2023-01-21T19:10:46.851Z,99.80
2023-01-21T19:13:13.931Z,99.80
2023-01-21T19:15:41.913Z,99.80
2023-01-21T19:18:13.392Z,99.80
2023-01-21T19:20:41.731Z,99.80
2023-01-21T19:23:17.687Z,99.60
2023-01-21T19:25:57.848Z,99.70
2023-01-21T19:28:25.757Z,99.80
2023-01-21T19:30:55.619Z,99.70
2023-01-21T19:33:23.503Z,99.60
2023-01-21T19:36:03.464Z,99.70
2023-01-21T19:38:30.676Z,99.50
2023-01-21T19:40:57.899Z,99.70
2023-01-21T19:43:24.948Z,99.70
2023-01-21T19:45:53.236Z,99.60
2023-01-21T19:48:21.652Z,99.50
2023-01-21T19:50:49.114Z,99.90
2023-01-21T19:53:18.259Z,99.90
2023-01-21T19:55:46.695Z,99.90
2023-01-21T19:58:26.338Z,99.90
2023-01-21T20:00:53.999Z,99.90
2023-01-21T20:03:26.819Z,99.90
2023-01-21T20:06:01.134Z,99.90
2023-01-21T20:08:30.394Z,99.90
2023-01-21T20:10:57.431Z,99.90
2023-01-21T20:13:25.073Z,99.90
2023-01-21T20:15:54.988Z,99.80
2023-01-21T20:18:30.127Z,99.80
2023-01-21T20:20:57.145Z,99.80
2023-01-21T20:23:25.605Z,99.80
2023-01-21T20:25:59.703Z,99.80
2023-01-21T20:28:35.837Z,99.70
2023-01-21T20:31:06.527Z,99.70
2023-01-21T20:33:36.001Z,99.70
2023-01-21T20:36:06.477Z,99.70
2023-01-21T20:38:35.852Z,99.60
2023-01-21T20:41:04.420Z,99.70
2023-01-21T20:43:31.974Z,99.80
2023-01-21T20:46:05.742Z,99.60
2023-01-21T20:48:36.420Z,99.60
2023-01-21T20:51:04.212Z,99.60
2023-01-21T20:53:31.341Z,99.60
2023-01-21T20:56:07.075Z,99.60
2023-01-21T20:58:34.121Z,99.50
2023-01-21T21:01:01.316Z,99.60
2023-01-21T21:03:28.440Z,99.50
2023-01-21T21:05:55.458Z,99.60
2023-01-21T21:08:24.503Z,99.60
2023-01-21T21:10:55.482Z,99.50
2023-01-21T21:13:22.593Z,99.50
2023-01-21T21:15:50.778Z,99.50
2023-01-21T21:18:17.825Z,99.60
2023-01-21T21:20:44.825Z,99.50
2023-01-21T21:23:15.078Z,99.50
2023-01-21T21:25:44.968Z,99.60
2023-01-21T21:28:14.434Z,99.50
2023-01-21T21:30:41.774Z,99.50
2023-01-21T21:33:18.539Z,99.60
2023-01-21T21:35:46.967Z,99.50
2023-01-21T21:38:21.943Z,99.60
2023-01-21T21:40:53.099Z,99.50
2023-01-21T21:43:33.449Z,99.50
2023-01-21T21:46:26.895Z,99.50
2023-01-21T21:48:54.205Z,99.60
2023-01-21T21:51:22.652Z,99.60
2023-01-21T21:53:50.308Z,99.50
2023-01-21T21:56:24.590Z,99.40
2023-01-21T21:58:51.991Z,99.40
2023-01-21T22:01:23.525Z,99.40
2023-01-21T22:03:51.301Z,99.30
2023-01-21T22:06:20.123Z,99.50
2023-01-21T22:08:47.376Z,99.40
2023-01-21T22:11:16.946Z,99.50
2023-01-21T22:13:45.379Z,99.30
2023-01-21T22:16:17.693Z,99.30
2023-01-21T22:18:44.987Z,99.40
2023-01-21T22:21:24.451Z,99.40
2023-01-21T22:23:52.372Z,99.50
2023-01-21T22:26:21.624Z,99.50
2023-01-21T22:28:49.051Z,99.40
2023-01-21T22:31:22.341Z,99.50
2023-01-21T22:33:49.650Z,99.40
2023-01-21T22:36:19.167Z,99.20
2023-01-21T22:38:46.987Z,99.40
2023-01-21T22:41:16.011Z,99.40
2023-01-21T22:43:48.563Z,99.30
2023-01-21T22:46:26.706Z,99.40
2023-01-21T22:48:54.606Z,99.00
2023-01-21T22:51:23.236Z,99.20
2023-01-21T22:53:51.186Z,99.40
2023-01-21T22:56:25.420Z,99.20
2023-01-21T22:58:58.809Z,99.10
2023-01-21T23:01:33.662Z,99.10
2023-01-21T23:04:01.159Z,99.10
2023-01-21T23:06:29.052Z,99.20
2023-01-21T23:08:56.131Z,99.20
2023-01-21T23:11:23.301Z,99.00
2023-01-21T23:13:50.384Z,99.20
2023-01-21T23:16:19.147Z,99.30
2023-01-21T23:18:46.428Z,99.10
2023-01-21T23:21:16.967Z,99.00
2023-01-21T23:23:44.660Z,99.20
2023-01-21T23:26:13.193Z,99.30
2023-01-21T23:28:40.377Z,99.20
2023-01-21T23:31:18.320Z,99.10
2023-01-21T23:33:49.391Z,99.10
2023-01-21T23:36:16.490Z,99.40
2023-01-21T23:38:43.820Z,99.20
2023-01-21T23:41:13.635Z,98.90
2023-01-21T23:43:43.943Z,99.10
2023-01-21T23:46:16.675Z,99.00
2023-01-21T23:48:43.858Z,99.00
2023-01-21T23:51:13.737Z,99.10
2023-01-21T23:53:43.727Z,99.20
2023-01-21T23:56:14.050Z,99.20
2023-01-21T23:58:41.428Z,99.20
